createdAt,value
2023-02-27T00:01:33.262Z,46.99
2023-02-27T00:03:58.809Z,47.84
2023-02-27T00:06:24.354Z,47.63
2023-02-27T00:08:49.997Z,48.02
2023-02-27T00:11:15.569Z,47.72
2023-02-27T00:13:41.291Z,47.45
2023-02-27T00:21:08.315Z,47.35
2023-02-27T00:23:33.837Z,48.02
2023-02-27T00:25:59.358Z,47.79
2023-02-27T00:28:24.906Z,47.95
2023-02-27T00:30:50.485Z,48.26
2023-02-27T00:33:16.045Z,48.18
2023-02-27T00:35:41.712Z,47.61
2023-02-27T00:45:48.875Z,48.44
2023-02-27T00:48:14.412Z,48.29
2023-02-27T00:50:39.934Z,48.49
2023-02-27T00:53:05.428Z,48.98
2023-02-27T00:55:31.094Z,48.83
2023-02-27T00:57:56.645Z,49.31
2023-02-27T01:00:22.167Z,48.79
2023-02-27T01:02:47.964Z,48.96
2023-02-27T01:10:14.899Z,49.25
2023-02-27T01:12:40.379Z,49.50
2023-02-27T01:15:05.914Z,49.64
2023-02-27T01:17:31.478Z,49.58
2023-02-27T01:19:57.128Z,49.91
2023-02-27T01:22:22.625Z,49.99
2023-02-27T01:24:48.138Z,49.45
2023-02-27T01:27:13.944Z,49.45
2023-02-27T01:34:41.073Z,49.84
2023-02-27T01:37:06.580Z,50.10
2023-02-27T01:39:32.056Z,50.46
2023-02-27T01:41:57.552Z,50.23
2023-02-27T01:44:23.068Z,50.66
2023-02-27T01:46:48.610Z,50.43
2023-02-27T01:49:14.104Z,50.89
2023-02-27T01:51:39.576Z,50.74
2023-02-27T01:59:07.136Z,51.02
2023-02-27T02:01:32.713Z,51.05
2023-02-27T02:03:58.282Z,51.25
2023-02-27T02:06:23.829Z,52.05
2023-02-27T02:08:49.479Z,52.08
2023-02-27T02:11:14.998Z,52.12
2023-02-27T02:13:40.594Z,51.83
2023-02-27T02:16:06.427Z,52.03
2023-02-27T02:25:58.868Z,51.99
2023-02-27T02:28:24.380Z,51.52
2023-02-27T02:30:50.007Z,51.90
2023-02-27T02:33:15.569Z,51.98
2023-02-27T02:35:41.059Z,51.59
2023-02-27T02:38:06.590Z,51.36
2023-02-27T02:40:32.099Z,51.60
2023-02-27T02:42:57.968Z,51.14
2023-02-27T02:50:24.977Z,51.93
2023-02-27T02:52:50.466Z,51.20
2023-02-27T02:55:15.961Z,51.69
2023-02-27T02:57:41.460Z,51.54
2023-02-27T03:00:06.974Z,51.13
2023-02-27T03:02:32.487Z,51.34
2023-02-27T03:04:58.028Z,51.33
2023-02-27T03:07:23.803Z,51.68
2023-02-27T03:14:51.033Z,51.67
2023-02-27T03:17:16.513Z,51.49
2023-02-27T03:19:42.037Z,51.40
2023-02-27T03:22:07.690Z,51.54
2023-02-27T03:24:33.228Z,51.22
2023-02-27T03:26:58.717Z,50.83
2023-02-27T03:29:24.230Z,50.77
2023-02-27T03:31:49.920Z,50.24
2023-02-27T03:39:17.189Z,50.74
2023-02-27T03:41:42.744Z,50.93
2023-02-27T03:44:08.272Z,50.51
2023-02-27T03:46:33.807Z,50.54
2023-02-27T03:48:59.328Z,50.58
2023-02-27T03:51:25.057Z,50.71
2023-02-27T03:53:50.767Z,50.58
2023-02-27T03:56:16.257Z,50.82
2023-02-27T04:06:03.865Z,50.90
2023-02-27T04:08:29.359Z,51.00
2023-02-27T04:10:54.900Z,51.00
2023-02-27T04:13:20.555Z,51.01
2023-02-27T04:15:46.072Z,51.62
2023-02-27T04:18:11.589Z,51.95
2023-02-27T04:20:37.161Z,51.22
2023-02-27T04:23:02.645Z,51.43
2023-02-27T04:30:29.987Z,52.09
2023-02-27T04:32:55.564Z,51.54
2023-02-27T04:35:21.083Z,52.06
2023-02-27T04:37:46.616Z,52.20
2023-02-27T04:40:12.148Z,52.40
2023-02-27T04:42:37.719Z,52.00
2023-02-27T04:45:03.252Z,52.29
2023-02-27T04:47:29.126Z,51.89
2023-02-27T04:54:56.262Z,52.70
2023-02-27T04:57:21.876Z,52.21
2023-02-27T04:59:47.407Z,52.15
2023-02-27T05:02:13.139Z,52.59
2023-02-27T05:04:38.726Z,52.56
2023-02-27T05:07:04.202Z,52.54
2023-02-27T05:09:29.737Z,53.35
2023-02-27T05:14:32.761Z,53.31
2023-02-27T05:16:58.261Z,53.53
2023-02-27T05:19:23.780Z,53.53
2023-02-27T05:21:49.460Z,53.76
2023-02-27T05:24:14.987Z,53.36
2023-02-27T05:26:40.482Z,54.04
2023-02-27T05:29:06.027Z,53.17
2023-02-27T05:31:31.754Z,53.62
2023-02-27T05:38:58.854Z,54.66
2023-02-27T05:41:24.438Z,54.09
2023-02-27T05:43:49.996Z,54.02
2023-02-27T05:46:15.611Z,54.55
2023-02-27T05:48:41.259Z,53.96
2023-02-27T05:51:06.799Z,54.56
2023-02-27T05:53:32.301Z,54.69
2023-02-27T05:55:58.128Z,54.98
2023-02-27T06:03:25.038Z,55.04
2023-02-27T06:05:50.583Z,54.81
2023-02-27T06:08:16.124Z,55.25
2023-02-27T06:10:41.634Z,55.09
2023-02-27T06:13:07.122Z,55.52
2023-02-27T06:15:32.640Z,55.81
2023-02-27T06:17:58.214Z,55.78
2023-02-27T06:23:03.229Z,55.99
2023-02-27T06:25:28.771Z,55.94
2023-02-27T06:27:54.270Z,56.15
2023-02-27T06:30:19.785Z,56.07
2023-02-27T06:32:45.260Z,55.95
2023-02-27T06:35:10.822Z,56.41
2023-02-27T06:37:36.356Z,56.57
2023-02-27T06:40:02.220Z,56.38
2023-02-27T06:47:29.269Z,56.37
2023-02-27T06:49:54.766Z,56.14
2023-02-27T06:52:20.266Z,55.89
2023-02-27T06:54:45.742Z,55.03
2023-02-27T06:57:11.251Z,54.24
2023-02-27T06:59:36.773Z,52.69
2023-02-27T07:02:02.258Z,52.14
2023-02-27T07:04:28.024Z,51.07
2023-02-27T07:11:55.348Z,48.47
2023-02-27T07:14:20.841Z,47.79
2023-02-27T07:16:46.343Z,47.36
2023-02-27T07:19:11.858Z,47.06
2023-02-27T07:21:37.473Z,45.94
2023-02-27T07:24:02.988Z,45.43
2023-02-27T07:26:28.808Z,45.10
2023-02-27T07:31:36.833Z,44.08
2023-02-27T07:34:02.415Z,44.16
2023-02-27T07:36:28.241Z,43.59
2023-02-27T07:38:53.945Z,43.18
2023-02-27T07:41:29.903Z,42.89
2023-02-27T07:43:56.094Z,42.25
2023-02-27T07:46:21.658Z,41.48
2023-02-27T07:56:28.766Z,39.09
2023-02-27T07:58:54.438Z,38.54
2023-02-27T08:01:19.966Z,37.06
2023-02-27T08:03:45.450Z,36.31
2023-02-27T08:06:10.985Z,36.99
2023-02-27T08:08:36.516Z,37.35
2023-02-27T08:11:02.054Z,36.91
2023-02-27T08:21:04.706Z,34.73
2023-02-27T08:23:30.245Z,34.19
2023-02-27T08:25:55.798Z,33.03
2023-02-27T08:28:21.340Z,32.69
2023-02-27T08:30:46.845Z,32.50
2023-02-27T08:33:12.415Z,31.66
2023-02-27T08:35:38.081Z,30.82
2023-02-27T08:38:03.895Z,31.34
2023-02-27T08:45:30.869Z,31.73
2023-02-27T08:47:56.412Z,30.16
2023-02-27T08:50:22.014Z,29.49
2023-02-27T08:52:47.553Z,29.28
2023-02-27T08:55:13.101Z,27.80
2023-02-27T08:57:38.621Z,27.62
2023-02-27T09:00:04.193Z,27.53
2023-02-27T09:09:41.195Z,27.61
2023-02-27T09:12:06.764Z,27.12
2023-02-27T09:14:32.328Z,26.90
2023-02-27T09:16:57.925Z,27.10
2023-02-27T09:19:23.519Z,27.22
2023-02-27T09:21:49.067Z,26.44
2023-02-27T09:24:20.256Z,25.70
2023-02-27T09:34:27.952Z,25.33
2023-02-27T09:36:53.500Z,24.64
2023-02-27T09:39:19.060Z,25.02
2023-02-27T09:41:44.560Z,25.48
2023-02-27T09:44:10.040Z,25.04
2023-02-27T09:46:35.537Z,25.38
2023-02-27T09:49:01.152Z,25.03
2023-02-27T09:58:38.208Z,24.09
2023-02-27T10:01:03.740Z,22.98
2023-02-27T10:03:29.315Z,23.40
2023-02-27T10:05:54.974Z,22.99
2023-02-27T10:08:20.532Z,21.87
2023-02-27T10:10:46.024Z,22.35
2023-02-27T10:13:11.565Z,22.40
2023-02-27T10:15:37.105Z,22.22
2023-02-27T10:23:04.264Z,23.44
2023-02-27T10:25:31.981Z,22.93
2023-02-27T10:27:57.865Z,22.66
2023-02-27T10:30:29.240Z,21.82
2023-02-27T10:32:56.457Z,21.05
2023-02-27T10:35:22.101Z,21.83
2023-02-27T10:37:47.616Z,21.82
2023-02-27T10:43:30.506Z,20.63
2023-02-27T10:45:56.028Z,20.71
2023-02-27T10:48:21.614Z,20.08
2023-02-27T10:50:47.164Z,19.54
2023-02-27T10:53:12.663Z,19.23
2023-02-27T10:55:38.138Z,18.74
2023-02-27T10:58:03.714Z,18.04
2023-02-27T11:00:29.251Z,18.71
2023-02-27T11:07:56.576Z,19.40
2023-02-27T11:10:22.133Z,18.91
2023-02-27T11:12:47.622Z,19.14
2023-02-27T11:15:13.197Z,18.55
2023-02-27T11:17:38.694Z,17.91
2023-02-27T11:20:04.235Z,16.82
2023-02-27T11:22:29.771Z,17.75
2023-02-27T11:24:55.527Z,17.00
2023-02-27T11:32:22.722Z,18.24
2023-02-27T11:34:48.322Z,17.21
2023-02-27T11:37:13.840Z,17.21
2023-02-27T11:39:39.394Z,18.78
2023-02-27T11:42:04.952Z,19.40
2023-02-27T11:44:50.058Z,18.56
2023-02-27T11:47:16.058Z,19.28
2023-02-27T11:49:41.908Z,19.50
2023-02-27T11:57:09.614Z,19.05
2023-02-27T11:59:35.158Z,18.35
2023-02-27T12:02:00.697Z,18.29
2023-02-27T12:04:26.226Z,17.67
2023-02-27T12:06:51.720Z,18.26
2023-02-27T12:09:17.232Z,19.17
2023-02-27T12:11:42.716Z,18.55
2023-02-27T12:14:08.506Z,19.18
2023-02-27T12:21:35.690Z,18.99
2023-02-27T12:24:01.252Z,19.29
2023-02-27T12:26:27.087Z,19.19
2023-02-27T12:28:52.794Z,18.79
2023-02-27T12:31:18.499Z,18.46
2023-02-27T12:33:44.071Z,19.90
2023-02-27T12:36:09.593Z,19.54
2023-02-27T12:38:35.416Z,19.41
2023-02-27T12:45:58.398Z,19.32
2023-02-27T12:48:24.006Z,19.02
2023-02-27T12:50:49.594Z,19.20
2023-02-27T12:53:15.141Z,18.59
2023-02-27T12:55:40.636Z,18.89
2023-02-27T12:58:06.153Z,19.69
2023-02-27T13:00:31.663Z,18.84
2023-02-27T13:02:57.410Z,19.14
2023-02-27T13:10:24.383Z,18.76
2023-02-27T13:12:49.946Z,18.88
2023-02-27T13:15:15.453Z,18.61
2023-02-27T13:17:40.975Z,18.05
2023-02-27T13:20:06.528Z,18.60
2023-02-27T13:22:32.063Z,18.39
2023-02-27T13:24:57.571Z,18.33
2023-02-27T13:27:23.115Z,18.43
2023-02-27T13:37:10.834Z,18.87
2023-02-27T13:39:36.400Z,19.18
2023-02-27T13:42:02.043Z,19.57
2023-02-27T13:44:27.631Z,19.94
2023-02-27T13:46:53.259Z,20.27
2023-02-27T13:49:28.849Z,20.23
2023-02-27T13:51:54.992Z,20.53
2023-02-27T13:54:20.654Z,21.17
2023-02-27T14:01:48.110Z,21.16
2023-02-27T14:04:13.665Z,21.80
2023-02-27T14:06:39.337Z,20.93
2023-02-27T14:09:14.865Z,21.33
2023-02-27T14:11:41.021Z,21.65
2023-02-27T14:14:06.638Z,21.91
2023-02-27T14:16:32.164Z,20.70
2023-02-27T14:26:14.289Z,21.26
2023-02-27T14:28:39.814Z,21.17
2023-02-27T14:31:05.340Z,21.51
2023-02-27T14:33:40.174Z,21.59
2023-02-27T14:36:06.270Z,21.83
2023-02-27T14:38:31.755Z,21.99
2023-02-27T14:40:57.250Z,21.51
2023-02-27T14:43:23.036Z,21.96
2023-02-27T14:53:10.900Z,21.94
2023-02-27T14:55:36.383Z,21.91
2023-02-27T14:58:01.949Z,22.73
2023-02-27T15:00:27.545Z,22.54
2023-02-27T15:02:53.221Z,22.82
2023-02-27T15:05:18.774Z,22.75
2023-02-27T15:07:44.301Z,21.79
2023-02-27T15:10:10.100Z,22.20
2023-02-27T15:17:36.996Z,22.56
2023-02-27T15:20:02.532Z,23.28
2023-02-27T15:22:38.142Z,23.35
2023-02-27T15:25:04.321Z,23.33
2023-02-27T15:27:29.807Z,23.37
2023-02-27T15:29:55.392Z,22.54
2023-02-27T15:32:21.019Z,23.31
2023-02-27T15:42:28.680Z,24.33
2023-02-27T15:44:54.238Z,24.11
2023-02-27T15:47:19.738Z,24.23
2023-02-27T15:49:45.290Z,24.75
2023-02-27T15:52:10.855Z,23.73
2023-02-27T15:54:36.343Z,24.44
2023-02-27T15:57:01.834Z,24.97
2023-02-27T15:59:27.468Z,25.56
2023-02-27T16:06:18.206Z,24.89
2023-02-27T16:08:43.800Z,25.10
2023-02-27T16:11:09.281Z,25.44
2023-02-27T16:13:34.878Z,25.90
2023-02-27T16:16:00.560Z,25.87
2023-02-27T16:18:26.117Z,27.09
2023-02-27T16:20:51.625Z,27.04
2023-02-27T16:23:17.411Z,27.14
2023-02-27T16:30:44.221Z,28.79
2023-02-27T16:33:09.698Z,28.68
2023-02-27T16:35:35.281Z,29.47
2023-02-27T16:38:00.924Z,29.83
2023-02-27T16:40:26.586Z,30.45
2023-02-27T16:42:52.173Z,30.65
2023-02-27T16:45:17.815Z,31.29
2023-02-27T16:55:24.734Z,31.82
2023-02-27T16:57:50.315Z,31.83
2023-02-27T17:00:15.825Z,32.27
2023-02-27T17:02:41.937Z,32.72
2023-02-27T17:05:07.491Z,33.10
2023-02-27T17:07:32.974Z,33.11
2023-02-27T17:09:58.546Z,32.74
2023-02-27T17:12:24.161Z,33.13
2023-02-27T17:19:50.910Z,34.21
2023-02-27T17:22:16.411Z,33.56
2023-02-27T17:24:41.931Z,33.62
2023-02-27T17:27:07.495Z,33.54
2023-02-27T17:29:33.039Z,34.67
2023-02-27T17:31:58.625Z,34.54
2023-02-27T17:34:24.225Z,34.67
2023-02-27T17:36:49.719Z,34.99
2023-02-27T17:44:16.959Z,34.85
2023-02-27T17:46:42.499Z,35.55
2023-02-27T17:49:08.043Z,35.11
2023-02-27T17:51:33.542Z,35.98
2023-02-27T17:53:59.075Z,35.97
2023-02-27T17:56:24.558Z,35.82
2023-02-27T17:58:50.040Z,36.41
2023-02-27T18:03:58.376Z,36.52
2023-02-27T18:06:23.933Z,36.72
2023-02-27T18:08:49.434Z,36.39
2023-02-27T18:11:14.940Z,37.19
2023-02-27T18:13:40.449Z,37.13
2023-02-27T18:16:06.001Z,37.55
2023-02-27T18:18:31.559Z,38.04
2023-02-27T18:28:38.877Z,38.00
2023-02-27T18:31:04.431Z,38.32
2023-02-27T18:33:29.979Z,38.28
2023-02-27T18:35:55.558Z,38.53
2023-02-27T18:38:21.161Z,38.57
2023-02-27T18:40:46.707Z,38.86
2023-02-27T18:43:12.240Z,39.06
2023-02-27T18:48:20.280Z,39.13
2023-02-27T18:50:45.831Z,39.00
2023-02-27T18:53:11.414Z,38.98
2023-02-27T18:55:36.895Z,39.65
2023-02-27T18:58:02.442Z,39.99
2023-02-27T19:00:27.997Z,40.07
2023-02-27T19:02:53.635Z,39.89
2023-02-27T19:08:01.825Z,40.16
2023-02-27T19:10:27.436Z,40.22
2023-02-27T19:12:52.997Z,40.36
2023-02-27T19:15:18.518Z,40.83
2023-02-27T19:17:44.056Z,40.70
2023-02-27T19:20:09.559Z,41.61
2023-02-27T19:22:35.125Z,41.31
2023-02-27T19:32:37.756Z,42.53
2023-02-27T19:35:03.289Z,42.40
2023-02-27T19:37:28.899Z,42.72
2023-02-27T19:39:54.431Z,43.31
2023-02-27T19:42:19.917Z,43.35
2023-02-27T19:44:45.461Z,43.65
2023-02-27T19:47:11.186Z,43.87
2023-02-27T19:49:36.806Z,44.00
2023-02-27T19:56:49.752Z,43.64
2023-02-27T19:59:15.228Z,44.04
2023-02-27T20:01:40.714Z,44.51
2023-02-27T20:04:06.302Z,44.49
2023-02-27T20:06:32.157Z,44.19
2023-02-27T20:08:58.026Z,44.49
2023-02-27T20:11:23.831Z,44.55
2023-02-27T20:16:59.919Z,44.80
2023-02-27T20:19:25.507Z,45.36
2023-02-27T20:21:51.097Z,45.45
2023-02-27T20:24:16.653Z,45.16
2023-02-27T20:26:42.247Z,45.78
2023-02-27T20:29:07.881Z,45.69
2023-02-27T20:31:33.504Z,45.88
2023-02-27T20:33:59.288Z,45.97
2023-02-27T20:41:29.020Z,46.23
2023-02-27T20:43:54.922Z,46.50
2023-02-27T20:46:20.463Z,46.58
2023-02-27T20:48:46.079Z,46.58
2023-02-27T20:51:11.609Z,46.31
2023-02-27T20:53:37.153Z,46.68
2023-02-27T20:56:02.677Z,46.70
2023-02-27T20:58:28.169Z,47.18
2023-02-27T21:05:55.252Z,47.58
2023-02-27T21:08:20.794Z,47.36
2023-02-27T21:10:46.327Z,47.48
2023-02-27T21:13:11.947Z,47.00
2023-02-27T21:15:37.524Z,47.16
2023-02-27T21:18:03.032Z,47.34
2023-02-27T21:20:28.526Z,47.44
2023-02-27T21:26:35.889Z,47.92
2023-02-27T21:29:01.414Z,48.21
2023-02-27T21:31:27.234Z,47.65
2023-02-27T21:33:52.874Z,48.13
2023-02-27T21:36:18.347Z,48.30
2023-02-27T21:38:43.880Z,48.28
2023-02-27T21:41:11.567Z,48.26
2023-02-27T21:51:14.398Z,48.29
2023-02-27T21:53:39.897Z,48.69
2023-02-27T21:56:05.456Z,48.74
2023-02-27T21:58:31.018Z,48.62
2023-02-27T22:00:56.555Z,48.56
2023-02-27T22:03:22.100Z,49.06
2023-02-27T22:05:47.575Z,48.93
2023-02-27T22:15:24.734Z,49.42
2023-02-27T22:17:50.246Z,49.39
2023-02-27T22:20:15.802Z,49.84
2023-02-27T22:22:41.354Z,49.80
2023-02-27T22:25:06.875Z,49.81
2023-02-27T22:27:32.400Z,50.01
2023-02-27T22:29:57.904Z,50.12
2023-02-27T22:32:23.471Z,50.86
2023-02-27T22:39:50.729Z,50.61
2023-02-27T22:42:16.292Z,50.69
2023-02-27T22:44:41.797Z,50.81
2023-02-27T22:47:07.266Z,50.73
2023-02-27T22:49:32.786Z,50.94
2023-02-27T22:51:58.296Z,51.30
2023-02-27T22:54:23.797Z,51.47
2023-02-27T22:59:32.226Z,51.62
2023-02-27T23:01:57.813Z,51.82
2023-02-27T23:04:23.336Z,52.04
2023-02-27T23:06:50.420Z,52.02
2023-02-27T23:09:17.042Z,52.30
2023-02-27T23:11:42.531Z,51.99
2023-02-27T23:14:08.020Z,52.17
2023-02-27T23:16:33.807Z,52.12
2023-02-27T23:24:01.449Z,51.75
2023-02-27T23:26:26.951Z,52.36
2023-02-27T23:28:52.457Z,52.02
2023-02-27T23:31:18.014Z,52.08
2023-02-27T23:33:43.543Z,52.45
2023-02-27T23:36:09.091Z,52.38
2023-02-27T23:38:34.639Z,52.89
2023-02-27T23:41:00.214Z,52.84
2023-02-27T23:48:27.518Z,53.36
2023-02-27T23:50:52.996Z,53.64
2023-02-27T23:53:18.512Z,53.36
2023-02-27T23:55:44.015Z,53.44
2023-02-27T23:58:09.536Z,53.74
